sensor_id;sensor_type;location;lat;lon;timestamp;pressure;altitude;pressure_sealevel;temperature;humidity
26178;BME280;13924;47.670;10.310;2023-02-23T06:09:28;93310;;;6.3;100.0
26178;BME280;13924;47.670;10.310;2023-02-23T06:24:29;93280;;;6.4;100.0
26178;BME280;13924;47.670;10.310;2023-02-23T06:39:34;93340;;;6.2;100.0
26178;BME280;13924;47.670;10.310;2023-02-23T06:54:30;93420;;;6.3;100.0
26178;BME280;13924;47.670;10.310;2023-02-23T07:09:31;93440;;;6.4;100.0
26178;BME280;13924;47.670;10.310;2023-02-23T07:24:38;93440;;;6.4;100.0
26178;BME280;13924;47.670;10.310;2023-02-23T07:39:32;93580;;;6.4;100.0
26178;BME280;13924;47.670;10.310;2023-02-23T07:54:34;93580;;;6.4;100.0
26178;BME280;13924;47.670;10.310;2023-02-23T08:09:36;93580;;;6.8;100.0
26178;BME280;13924;47.670;10.310;2023-02-23T08:24:37;93590;;;6.8;100.0
26178;BME280;13924;47.670;10.310;2023-02-23T08:39:38;93580;;;6.9;100.0
26178;BME280;13924;47.670;10.310;2023-02-23T08:54:38;93570;;;7.0;100.0
26178;BME280;13924;47.670;10.310;2023-02-23T09:10:17;93570;;;7.0;100.0
26178;BME280;13924;47.670;10.310;2023-02-23T09:24:53;93490;;;7.2;100.0
26178;BME280;13924;47.670;10.310;2023-02-23T09:39:42;93480;;;7.1;100.0
26178;BME280;13924;47.670;10.310;2023-02-23T10:24:27;93500;;;7.3;100.0
26178;BME280;13924;47.670;10.310;2023-02-23T10:39:43;93350;;;8.3;100.0
26178;BME280;13924;47.670;10.310;2023-02-23T10:54:46;93350;;;8.3;100.0
26178;BME280;13924;47.670;10.310;2023-02-23T11:09:44;93050;;;9.8;100.0
26178;BME280;13924;47.670;10.310;2023-02-23T11:24:47;93050;;;9.8;100.0
26178;BME280;13924;47.670;10.310;2023-02-23T11:39:51;92900;;;11.2;100.0
26178;BME280;13924;47.670;10.310;2023-02-23T11:54:52;92870;;;12.6;100.0
26178;BME280;13924;47.670;10.310;2023-02-23T12:09:53;92850;;;12.1;100.0
26178;BME280;13924;47.670;10.310;2023-02-23T12:24:55;92830;;;14.1;100.0
26178;BME280;13924;47.670;10.310;2023-02-23T12:39:53;92820;;;17.2;100.0
26178;BME280;13924;47.670;10.310;2023-02-23T12:54:48;92820;;;16.6;100.0
26178;BME280;13924;47.670;10.310;2023-02-23T13:09:59;92800;;;17.9;80.2
26178;BME280;13924;47.670;10.310;2023-02-23T13:24:54;92800;;;17.9;80.2
26178;BME280;13924;47.670;10.310;2023-02-23T13:39:58;92800;;;21.2;63.0
26178;BME280;13924;47.670;10.310;2023-02-23T13:54:54;92790;;;19.6;75.2
26178;BME280;13924;47.670;10.310;2023-02-23T14:09:54;92780;;;18.1;87.2
26178;BME280;13924;47.670;10.310;2023-02-23T14:25:44;92780;;;18.1;87.2
26178;BME280;13924;47.670;10.310;2023-02-23T14:40:04;92780;;;15.9;97.9
26178;BME280;13924;47.670;10.310;2023-02-23T14:55:07;92770;;;14.7;100.0
26178;BME280;13924;47.670;10.310;2023-02-23T15:09:57;92770;;;15.1;100.0
26178;BME280;13924;47.670;10.310;2023-02-23T15:25:10;92770;;;15.9;93.4
26178;BME280;13924;47.670;10.310;2023-02-23T15:39:58;92770;;;16.1;88.5
26178;BME280;13924;47.670;10.310;2023-02-23T15:54:59;92770;;;16.5;82.9
26178;BME280;13924;47.670;10.310;2023-02-23T16:10:05;92770;;;15.7;89.7
26178;BME280;13924;47.670;10.310;2023-02-23T16:25:02;92750;;;14.7;100.0
26178;BME280;13924;47.670;10.310;2023-02-23T16:39:58;92770;;;13.4;100.0
26178;BME280;13924;47.670;10.310;2023-02-23T16:54:59;92770;;;12.4;100.0
26178;BME280;13924;47.670;10.310;2023-02-23T17:09:59;92770;;;11.7;100.0
26178;BME280;13924;47.670;10.310;2023-02-23T17:25:00;92780;;;11.1;100.0
26178;BME280;13924;47.670;10.310;2023-02-23T17:40:02;92790;;;10.1;100.0
26178;BME280;13924;47.670;10.310;2023-02-23T17:55:03;92800;;;9.6;100.0
26178;BME280;13924;47.670;10.310;2023-02-23T18:25:07;92810;;;9.3;100.0
26178;BME280;13924;47.670;10.310;2023-02-23T18:55:05;92830;;;8.4;100.0
26178;BME280;13924;47.670;10.310;2023-02-23T19:10:06;92840;;;7.6;100.0
26178;BME280;13924;47.670;10.310;2023-02-23T19:25:07;92960;;;6.5;100.0
26178;BME280;13924;47.670;10.310;2023-02-23T19:40:08;92850;;;7.9;100.0
26178;BME280;13924;47.670;10.310;2023-02-23T19:55:14;92850;;;7.9;100.0
26178;BME280;13924;47.670;10.310;2023-02-23T20:10:28;92860;;;7.3;100.0
26178;BME280;13924;47.670;10.310;2023-02-23T20:25:12;92900;;;6.6;100.0
26178;BME280;13924;47.670;10.310;2023-02-23T20:40:13;92940;;;6.3;100.0
26178;BME280;13924;47.670;10.310;2023-02-23T20:55:10;92970;;;5.4;100.0
26178;BME280;13924;47.670;10.310;2023-02-23T21:10:11;92870;;;6.7;100.0
26178;BME280;13924;47.670;10.310;2023-02-23T21:25:11;92840;;;6.6;100.0
26178;BME280;13924;47.670;10.310;2023-02-23T21:40:15;92890;;;5.8;100.0
26178;BME280;13924;47.670;10.310;2023-02-23T21:55:15;92880;;;5.4;100.0
26178;BME280;13924;47.670;10.310;2023-02-23T22:10:17;92880;;;5.4;100.0
26178;BME280;13924;47.670;10.310;2023-02-23T22:25:14;93000;;;4.6;100.0
26178;BME280;13924;47.670;10.310;2023-02-23T22:40:16;92970;;;4.4;100.0
26178;BME280;13924;47.670;10.310;2023-02-23T22:55:22;92970;;;4.4;100.0
26178;BME280;13924;47.670;10.310;2023-02-23T23:00:55;92900;;;4.7;100.0
26178;BME280;13924;47.670;10.310;2023-02-23T23:15:41;92950;;;4.2;100.0
26178;BME280;13924;47.670;10.310;2023-02-23T23:30:41;92950;;;4.2;100.0
26178;BME280;13924;47.670;10.310;2023-02-23T23:45:41;92990;;;3.9;100.0
